createdAt,value
2019-01-20T00:02:14.267Z,0.73
2019-01-20T00:04:44.360Z,0.71
2019-01-20T00:07:14.462Z,0.70
2019-01-20T00:09:46.233Z,0.65
2019-01-20T00:12:16.442Z,0.63
2019-01-20T00:14:46.607Z,0.58
2019-01-20T00:17:18.822Z,0.57
2019-01-20T00:19:48.949Z,0.54
2019-01-20T00:22:19.208Z,0.52
2019-01-20T00:24:49.368Z,0.49
2019-01-20T00:27:19.529Z,0.52
2019-01-20T00:29:49.842Z,0.51
2019-01-20T00:32:19.955Z,0.48
2019-01-20T00:34:50.064Z,0.45
2019-01-20T00:37:20.269Z,0.41
2019-01-20T00:39:50.384Z,0.42
2019-01-20T00:42:20.492Z,0.41
2019-01-20T00:44:50.604Z,0.36
2019-01-20T00:47:20.831Z,0.33
2019-01-20T00:49:51.011Z,0.30
2019-01-20T00:52:21.111Z,0.05
2019-01-20T00:54:51.202Z,0.23
2019-01-20T00:57:21.308Z,0.21
2019-01-20T00:59:51.422Z,0.19
2019-01-20T01:02:21.546Z,0.19
2019-01-20T01:04:51.661Z,0.18
2019-01-20T01:07:21.767Z,0.18
2019-01-20T01:09:51.910Z,0.19
2019-01-20T01:12:22.020Z,0.21
2019-01-20T01:14:52.142Z,0.20
2019-01-20T01:17:22.254Z,0.24
2019-01-20T01:19:52.526Z,0.22
2019-01-20T01:22:22.618Z,0.20
2019-01-20T01:24:52.735Z,0.28
2019-01-20T01:27:23.918Z,0.28
2019-01-20T01:29:54.046Z,0.26
2019-01-20T01:32:24.165Z,0.24
2019-01-20T01:34:55.778Z,0.23
2019-01-20T01:37:25.866Z,0.23
2019-01-20T01:39:55.974Z,0.21
2019-01-20T01:42:26.122Z,0.19
2019-01-20T01:44:56.239Z,0.10
2019-01-20T01:47:26.666Z,0.00
2019-01-20T01:49:56.806Z,-0.02
2019-01-20T01:52:27.319Z,-0.09
2019-01-20T01:54:57.439Z,-0.19
2019-01-20T01:57:27.544Z,-0.28
2019-01-20T01:59:57.641Z,-0.32
2019-01-20T02:02:28.021Z,-0.39
2019-01-20T02:04:58.130Z,-0.48
2019-01-20T02:07:28.283Z,-0.56
2019-01-20T02:09:58.712Z,-0.60
2019-01-20T02:12:28.820Z,-0.67
2019-01-20T02:14:58.930Z,-0.77
2019-01-20T02:17:29.075Z,-0.83
2019-01-20T02:19:59.195Z,-0.85
2019-01-20T02:22:29.284Z,-0.89
2019-01-20T02:24:59.427Z,-0.95
2019-01-20T02:27:29.537Z,-1.01
2019-01-20T02:29:59.644Z,-1.14
2019-01-20T02:32:29.971Z,-1.17
2019-01-20T02:35:00.178Z,-1.21
2019-01-20T02:37:30.284Z,-1.23
2019-01-20T02:40:00.411Z,-1.28
2019-01-20T02:42:31.974Z,-1.27
2019-01-20T02:45:02.223Z,-1.34
2019-01-20T02:47:32.356Z,-1.37
2019-01-20T02:50:02.477Z,-1.42
2019-01-20T02:52:32.642Z,-1.45
2019-01-20T02:55:03.225Z,-1.47
2019-01-20T02:57:34.395Z,-1.47
2019-01-20T03:00:06.222Z,-1.46
2019-01-20T03:02:36.424Z,-1.49
2019-01-20T03:05:08.219Z,-1.52
2019-01-20T03:07:39.376Z,-1.52
2019-01-20T03:10:11.306Z,-1.57
2019-01-20T03:12:42.340Z,-1.60
2019-01-20T03:15:12.719Z,-1.53
2019-01-20T03:17:43.694Z,-1.57
2019-01-20T03:20:16.542Z,-1.54
2019-01-20T03:22:47.038Z,-1.57
2019-01-20T03:25:17.762Z,-1.56
2019-01-20T03:27:48.341Z,-1.54
2019-01-20T03:30:23.213Z,-1.57
2019-01-20T03:32:53.676Z,-1.68
2019-01-20T03:35:25.783Z,-1.69
2019-01-20T03:37:55.908Z,-1.78
2019-01-20T03:40:26.014Z,-1.92
2019-01-20T03:42:56.827Z,-1.94
2019-01-20T03:45:28.073Z,-1.98
2019-01-20T03:47:58.190Z,-2.03
2019-01-20T03:50:28.554Z,-2.09
2019-01-20T03:52:58.676Z,-2.27
2019-01-20T03:55:28.800Z,-2.23
2019-01-20T03:57:58.916Z,-2.20
2019-01-20T04:00:29.034Z,-2.25
2019-01-20T04:03:05.677Z,-2.23
2019-01-20T04:05:35.789Z,-2.26
2019-01-20T04:08:06.086Z,-2.23
2019-01-20T04:10:36.201Z,-2.31
2019-01-20T04:13:06.421Z,-2.29
2019-01-20T04:15:36.793Z,-2.31
2019-01-20T04:18:07.098Z,-2.31
2019-01-20T04:20:37.216Z,-2.30
2019-01-20T04:23:07.936Z,-2.30
2019-01-20T04:25:38.993Z,-2.31
2019-01-20T04:28:09.084Z,-2.32
2019-01-20T04:30:39.223Z,-2.36
2019-01-20T04:33:09.323Z,-2.43
2019-01-20T04:35:39.434Z,-2.41
2019-01-20T04:38:09.544Z,-2.45
2019-01-20T04:40:39.652Z,-2.46
2019-01-20T04:43:09.738Z,-2.45
2019-01-20T04:45:39.850Z,-2.48
2019-01-20T04:48:09.935Z,-2.47
2019-01-20T04:50:40.046Z,-2.52
2019-01-20T04:53:10.147Z,-2.50
2019-01-20T04:55:40.347Z,-2.49
2019-01-20T04:58:10.827Z,-2.53
2019-01-20T05:00:40.951Z,-2.51
2019-01-20T05:03:11.126Z,-2.51
2019-01-20T05:05:41.205Z,-2.53
2019-01-20T05:08:11.331Z,-2.56
2019-01-20T05:10:41.492Z,-2.57
2019-01-20T05:13:11.596Z,-2.58
2019-01-20T05:15:41.691Z,-2.56
2019-01-20T05:18:11.804Z,-2.58
2019-01-20T05:20:41.964Z,-2.59
2019-01-20T05:23:12.078Z,-2.63
2019-01-20T05:25:42.202Z,-2.66
2019-01-20T05:28:12.305Z,-2.62
2019-01-20T05:30:42.412Z,-2.69
2019-01-20T05:33:12.511Z,-2.79
2019-01-20T05:35:42.641Z,-2.73
2019-01-20T05:38:12.755Z,-2.79
2019-01-20T05:40:42.874Z,-2.78
2019-01-20T05:43:12.982Z,-2.86
2019-01-20T05:45:43.233Z,-2.84
2019-01-20T05:48:13.339Z,-2.82
2019-01-20T05:50:43.502Z,-2.84
2019-01-20T05:53:13.631Z,-2.84
2019-01-20T05:55:44.131Z,-2.84
2019-01-20T05:58:14.233Z,-2.85
2019-01-20T06:00:44.402Z,-2.85
2019-01-20T06:03:14.527Z,-2.87
2019-01-20T06:05:44.731Z,-2.85
2019-01-20T06:08:17.169Z,-2.94
2019-01-20T06:10:47.286Z,-2.94
2019-01-20T06:13:17.395Z,-2.99
2019-01-20T06:15:47.505Z,-3.00
2019-01-20T06:18:17.611Z,-3.11
2019-01-20T06:20:47.729Z,-3.13
2019-01-20T06:23:17.847Z,-3.10
2019-01-20T06:25:48.037Z,-3.13
2019-01-20T06:28:19.118Z,-3.14
2019-01-20T06:30:49.243Z,-3.15
2019-01-20T06:33:19.372Z,-3.13
2019-01-20T06:35:49.929Z,-3.10
2019-01-20T06:38:20.051Z,-3.15
2019-01-20T06:40:50.174Z,-3.10
2019-01-20T06:43:20.269Z,-3.08
2019-01-20T06:45:50.410Z,-3.06
2019-01-20T06:48:20.517Z,-3.11
2019-01-20T06:50:50.653Z,-3.14
2019-01-20T06:53:20.757Z,-3.20
2019-01-20T06:55:50.881Z,-3.15
2019-01-20T06:58:20.989Z,-3.20
2019-01-20T07:00:51.106Z,-3.23
2019-01-20T07:03:21.553Z,-3.23
2019-01-20T07:05:51.659Z,-3.29
2019-01-20T07:08:21.762Z,-3.35
2019-01-20T07:10:51.885Z,-3.30
2019-01-20T07:13:22.084Z,-3.32
2019-01-20T07:15:52.187Z,-3.30
2019-01-20T07:18:22.311Z,-3.31
2019-01-20T07:20:52.431Z,-3.37
2019-01-20T07:23:22.532Z,-3.34
2019-01-20T07:25:52.952Z,-3.40
2019-01-20T07:28:23.046Z,-3.39
2019-01-20T07:30:53.163Z,-3.39
2019-01-20T07:33:23.258Z,-3.41
2019-01-20T07:35:54.115Z,-3.42
2019-01-20T07:38:24.230Z,-3.42
2019-01-20T07:40:54.353Z,-3.40
2019-01-20T07:43:24.493Z,-3.41
2019-01-20T07:45:54.604Z,-3.42
2019-01-20T07:48:24.700Z,-3.40
2019-01-20T07:50:54.841Z,-3.40
2019-01-20T07:53:24.975Z,-3.38
2019-01-20T07:55:55.163Z,-3.40
2019-01-20T07:58:25.297Z,-3.40
2019-01-20T08:00:55.417Z,-3.47
2019-01-20T08:03:25.535Z,-3.45
2019-01-20T08:05:55.699Z,-3.44
2019-01-20T08:08:25.803Z,-3.47
2019-01-20T08:10:55.913Z,-3.40
2019-01-20T08:13:26.032Z,-3.44
2019-01-20T08:15:56.176Z,-3.47
2019-01-20T08:18:26.294Z,-3.41
2019-01-20T08:20:56.428Z,-3.44
2019-01-20T08:23:26.578Z,-3.40
2019-01-20T08:25:56.669Z,-3.28
2019-01-20T08:28:26.774Z,-3.24
2019-01-20T08:30:56.893Z,-3.17
2019-01-20T08:33:27.006Z,-3.16
2019-01-20T08:35:57.112Z,-3.16
2019-01-20T08:38:27.227Z,-3.20
2019-01-20T08:40:57.451Z,-3.20
2019-01-20T08:43:32.074Z,-3.14
2019-01-20T08:46:45.269Z,-3.14
2019-01-20T08:49:15.400Z,-3.10
2019-01-20T08:51:45.539Z,-3.04
2019-01-20T08:54:15.636Z,-3.05
2019-01-20T08:56:45.776Z,-3.04
2019-01-20T08:59:15.881Z,-2.96
2019-01-20T09:01:45.983Z,-2.89
2019-01-20T09:04:16.284Z,-2.96
2019-01-20T09:06:46.413Z,-3.03
2019-01-20T09:09:16.516Z,-2.95
2019-01-20T09:11:46.666Z,-2.96
2019-01-20T09:14:16.823Z,-2.97
2019-01-20T09:16:46.957Z,-3.03
2019-01-20T09:19:17.214Z,-3.02
2019-01-20T09:21:47.814Z,-2.96
2019-01-20T09:24:20.965Z,-2.94
2019-01-20T09:26:51.447Z,-2.96
2019-01-20T09:29:21.610Z,-2.91
2019-01-20T09:31:51.793Z,-2.91
2019-01-20T09:34:21.903Z,-2.84
2019-01-20T09:36:53.110Z,-2.82
2019-01-20T09:39:23.530Z,-2.71
2019-01-20T09:41:53.669Z,-2.76
2019-01-20T09:44:23.763Z,-2.72
2019-01-20T09:46:53.880Z,-2.68
2019-01-20T09:49:23.975Z,-2.64
2019-01-20T09:51:54.096Z,-2.61
2019-01-20T09:54:24.195Z,-2.57
2019-01-20T09:56:54.308Z,-2.53
2019-01-20T09:59:24.412Z,-2.45
2019-01-20T10:01:54.794Z,-2.40
2019-01-20T10:04:24.884Z,-2.39
2019-01-20T10:06:55.015Z,-2.36
2019-01-20T10:09:25.248Z,-2.43
2019-01-20T10:11:55.378Z,-2.37
2019-01-20T10:14:25.502Z,-2.29
2019-01-20T10:16:55.629Z,-2.23
2019-01-20T10:19:25.843Z,-2.25
2019-01-20T10:21:55.970Z,-2.13
2019-01-20T10:24:26.086Z,-2.11
2019-01-20T10:26:56.227Z,-2.08
2019-01-20T10:29:26.301Z,-2.03
2019-01-20T10:31:56.431Z,-1.98
2019-01-20T10:34:27.692Z,-1.95
2019-01-20T10:36:59.319Z,-1.87
2019-01-20T10:39:29.425Z,-1.88
2019-01-20T10:41:59.567Z,-1.84
2019-01-20T10:44:29.707Z,-1.80
2019-01-20T10:46:59.945Z,-1.79
2019-01-20T10:49:30.045Z,-1.76
2019-01-20T10:52:00.169Z,-1.70
2019-01-20T10:54:30.276Z,-1.63
2019-01-20T10:57:00.409Z,-1.57
2019-01-20T10:59:30.559Z,-1.56
2019-01-20T11:02:02.383Z,-1.49
2019-01-20T11:04:33.760Z,-1.44
2019-01-20T11:07:04.197Z,-1.50
2019-01-20T11:09:34.305Z,-1.44
2019-01-20T11:12:04.633Z,-1.49
2019-01-20T11:14:34.739Z,-1.45
2019-01-20T11:17:04.855Z,-1.43
2019-01-20T11:19:34.952Z,-1.41
2019-01-20T11:22:05.302Z,-1.41
2019-01-20T11:24:35.396Z,-1.38
2019-01-20T11:27:05.882Z,-1.38
2019-01-20T11:29:35.995Z,-1.41
2019-01-20T11:32:06.135Z,-1.38
2019-01-20T11:34:36.239Z,-1.42
2019-01-20T11:37:06.340Z,-1.40
2019-01-20T11:39:36.448Z,-1.44
2019-01-20T11:42:06.582Z,-1.40
2019-01-20T11:44:36.677Z,-1.40
2019-01-20T11:47:07.066Z,-1.40
2019-01-20T11:49:37.181Z,-1.42
2019-01-20T11:52:07.415Z,-1.42
2019-01-20T11:54:37.524Z,-1.46
2019-01-20T11:57:07.663Z,-1.46
2019-01-20T11:59:38.622Z,-1.44
2019-01-20T12:02:08.829Z,-1.40
2019-01-20T12:04:38.934Z,-1.50
2019-01-20T12:07:09.062Z,-1.48
2019-01-20T12:09:39.149Z,-1.46
2019-01-20T12:12:09.978Z,-1.44
2019-01-20T12:14:40.198Z,-1.42
2019-01-20T12:17:10.329Z,-1.38
2019-01-20T12:19:40.446Z,-1.31
2019-01-20T12:22:10.569Z,-1.31
2019-01-20T12:24:40.672Z,-1.27
2019-01-20T12:27:10.841Z,-1.32
2019-01-20T12:29:40.951Z,-1.32
2019-01-20T12:32:11.100Z,-1.30
2019-01-20T12:34:41.441Z,-1.25
2019-01-20T12:37:11.548Z,-1.25
2019-01-20T12:39:41.665Z,-1.18
2019-01-20T12:42:11.807Z,-1.16
2019-01-20T12:44:42.012Z,-1.16
2019-01-20T12:47:12.133Z,-1.21
2019-01-20T12:49:42.385Z,-1.26
2019-01-20T12:52:12.662Z,-1.24
2019-01-20T12:54:42.922Z,-1.26
2019-01-20T12:57:13.148Z,-1.27
2019-01-20T12:59:43.249Z,-1.27
2019-01-20T13:02:13.400Z,-1.30
2019-01-20T13:04:43.522Z,-1.31
2019-01-20T13:07:13.633Z,-1.29
2019-01-20T13:09:44.966Z,-1.33
2019-01-20T13:12:15.117Z,-1.35
2019-01-20T13:14:45.212Z,-1.39
2019-01-20T13:17:15.324Z,-1.39
2019-01-20T13:19:45.429Z,-1.35
2019-01-20T13:22:15.564Z,-1.42
2019-01-20T13:24:45.668Z,-1.51
2019-01-20T13:27:15.778Z,-1.50
2019-01-20T13:29:45.865Z,-1.47
2019-01-20T13:32:15.988Z,-1.50
2019-01-20T13:34:46.107Z,-1.49
2019-01-20T13:37:16.221Z,-1.51
2019-01-20T13:39:47.454Z,-1.54
2019-01-20T13:42:17.590Z,-1.53
2019-01-20T13:44:47.762Z,-1.56
2019-01-20T13:47:17.865Z,-1.54
2019-01-20T13:49:47.974Z,-1.57
2019-01-20T13:52:18.076Z,-1.59
2019-01-20T13:54:48.191Z,-1.60
2019-01-20T13:57:18.307Z,-1.60
2019-01-20T13:59:48.403Z,-1.62
2019-01-20T14:02:19.335Z,-1.65
2019-01-20T14:04:49.447Z,-1.69
2019-01-20T14:07:19.572Z,-1.70
2019-01-20T14:09:49.667Z,-1.72
2019-01-20T14:12:19.778Z,-1.74
2019-01-20T14:14:53.891Z,-1.77
2019-01-20T14:17:21.714Z,-1.82
2019-01-20T14:19:51.818Z,-1.87
2019-01-20T14:22:21.915Z,-1.90
2019-01-20T14:24:53.140Z,-1.97
2019-01-20T14:27:23.259Z,-2.04
2019-01-20T14:29:53.374Z,-2.06
2019-01-20T14:32:23.508Z,-2.10
2019-01-20T14:34:53.635Z,-2.11
2019-01-20T14:37:23.758Z,-2.11
2019-01-20T14:39:53.926Z,-2.12
2019-01-20T14:42:24.074Z,-2.14
2019-01-20T14:45:00.888Z,-2.13
2019-01-20T14:47:26.195Z,-2.12
2019-01-20T14:49:56.573Z,-2.10
2019-01-20T14:52:26.682Z,-2.10
2019-01-20T14:54:56.802Z,-2.14
2019-01-20T14:57:26.911Z,-2.20
2019-01-20T14:59:58.574Z,-2.43
2019-01-20T15:02:29.207Z,-2.52
2019-01-20T15:04:59.472Z,-2.56
2019-01-20T15:07:29.578Z,-2.60
2019-01-20T15:10:00.235Z,-2.66
2019-01-20T15:12:30.436Z,-2.71
2019-01-20T15:15:00.655Z,-2.70
2019-01-20T15:17:30.933Z,-2.70
2019-01-20T15:20:02.971Z,-2.75
2019-01-20T15:22:33.108Z,-2.84
2019-01-20T15:25:03.220Z,-2.95
2019-01-20T15:27:33.430Z,-3.08
2019-01-20T15:30:03.747Z,-3.21
2019-01-20T15:32:33.978Z,-3.35
2019-01-20T15:35:04.163Z,-3.46
2019-01-20T15:37:35.892Z,-3.59
2019-01-20T15:40:07.563Z,-3.68
2019-01-20T15:42:37.890Z,-3.82
2019-01-20T15:45:16.338Z,-3.91
2019-01-20T15:47:43.069Z,-3.98
2019-01-20T15:50:16.225Z,-4.08
2019-01-20T15:52:47.698Z,-4.14
2019-01-20T15:55:17.827Z,-4.21
2019-01-20T15:57:47.973Z,-4.27
2019-01-20T16:00:23.263Z,-4.37
2019-01-20T16:02:53.698Z,-4.41
2019-01-20T16:05:26.070Z,-4.47
2019-01-20T16:07:56.234Z,-4.58
2019-01-20T16:10:26.392Z,-4.60
2019-01-20T16:12:56.979Z,-4.65
2019-01-20T16:15:36.365Z,-4.72
2019-01-20T16:18:06.807Z,-4.76
2019-01-20T16:20:36.905Z,-4.84
2019-01-20T16:23:08.713Z,-4.90
2019-01-20T16:25:40.775Z,-4.91
2019-01-20T16:28:11.969Z,-4.98
2019-01-20T16:30:43.716Z,-5.05
2019-01-20T16:33:13.853Z,-5.10
2019-01-20T16:35:44.045Z,-5.15
2019-01-20T16:38:14.199Z,-5.24
2019-01-20T16:40:44.305Z,-5.31
2019-01-20T16:43:14.481Z,-5.35
2019-01-20T16:45:46.396Z,-5.35
2019-01-20T16:48:16.618Z,-5.36
2019-01-20T16:50:46.771Z,-5.39
2019-01-20T16:53:17.161Z,-5.44
2019-01-20T16:55:47.307Z,-5.58
2019-01-20T16:58:17.442Z,-5.63
2019-01-20T17:00:47.895Z,-5.68
2019-01-20T17:03:19.726Z,-5.71
2019-01-20T17:05:50.152Z,-5.76
2019-01-20T17:08:20.270Z,-5.82
2019-01-20T17:10:51.693Z,-5.82
2019-01-20T17:13:21.847Z,-5.79
2019-01-20T17:15:51.973Z,-5.75
2019-01-20T17:18:22.627Z,-5.69
2019-01-20T17:20:52.737Z,-5.73
2019-01-20T17:23:22.861Z,-5.78
2019-01-20T17:25:52.970Z,-5.92
2019-01-20T17:28:23.101Z,-6.02
2019-01-20T17:30:53.248Z,-6.01
2019-01-20T17:33:23.391Z,-6.03
2019-01-20T17:35:53.504Z,-6.05
2019-01-20T17:38:23.626Z,-6.28
2019-01-20T17:40:53.728Z,-6.24
2019-01-20T17:43:23.850Z,-6.29
2019-01-20T17:45:53.984Z,-6.35
2019-01-20T17:48:24.097Z,-6.48
2019-01-20T17:50:54.257Z,-6.55
2019-01-20T17:53:24.405Z,-6.62
2019-01-20T17:55:54.519Z,-6.75
2019-01-20T17:58:24.793Z,-6.67
2019-01-20T18:00:58.566Z,-6.64
2019-01-20T18:03:28.882Z,-6.55
2019-01-20T18:05:59.101Z,-6.59
2019-01-20T18:08:29.245Z,-6.67
2019-01-20T18:10:59.347Z,-6.78
2019-01-20T18:13:30.157Z,-6.89
2019-01-20T18:16:00.322Z,-7.15
2019-01-20T18:18:30.840Z,-7.08
2019-01-20T18:21:01.124Z,-7.07
2019-01-20T18:23:31.267Z,-7.07
2019-01-20T18:26:01.424Z,-7.12
2019-01-20T18:28:31.575Z,-7.22
2019-01-20T18:31:01.774Z,-7.17
2019-01-20T18:33:32.304Z,-7.26
2019-01-20T18:36:02.474Z,-7.33
2019-01-20T18:38:32.610Z,-7.35
2019-01-20T18:41:02.709Z,-7.30
2019-01-20T18:43:32.877Z,-7.41
2019-01-20T18:46:03.017Z,-7.40
2019-01-20T18:48:33.158Z,-7.32
2019-01-20T18:51:03.463Z,-7.28
2019-01-20T18:53:33.535Z,-7.36
2019-01-20T18:56:03.650Z,-7.39
2019-01-20T18:58:33.769Z,-7.45
2019-01-20T19:01:04.150Z,-7.55
2019-01-20T19:03:34.573Z,-7.57
2019-01-20T19:06:04.684Z,-7.60
2019-01-20T19:08:34.818Z,-7.60
2019-01-20T19:11:05.043Z,-7.61
2019-01-20T19:13:35.241Z,-7.58
2019-01-20T19:16:08.987Z,-7.55
2019-01-20T19:18:38.415Z,-7.46
2019-01-20T19:21:08.549Z,-7.40
2019-01-20T19:23:38.777Z,-7.45
2019-01-20T19:26:09.178Z,-7.44
2019-01-20T19:28:39.429Z,-7.45
2019-01-20T19:31:10.538Z,-7.32
2019-01-20T19:33:42.041Z,-7.16
2019-01-20T19:36:13.603Z,-7.12
2019-01-20T19:38:45.813Z,-7.34
2019-01-20T19:41:16.919Z,-7.49
2019-01-20T19:43:48.137Z,-7.50
2019-01-20T19:46:19.294Z,-7.53
2019-01-20T19:48:50.612Z,-7.46
2019-01-20T19:51:22.471Z,-7.44
2019-01-20T19:53:53.909Z,-7.65
2019-01-20T19:56:25.211Z,-7.79
2019-01-20T19:58:55.433Z,-7.76
2019-01-20T20:01:30.731Z,-7.93
2019-01-20T20:03:57.382Z,-7.73
2019-01-20T20:06:27.611Z,-7.67
2019-01-20T20:08:58.716Z,-7.60
2019-01-20T20:11:28.959Z,-7.53
2019-01-20T20:13:59.126Z,-7.59
2019-01-20T20:16:29.249Z,-7.56
2019-01-20T20:18:59.364Z,-7.56
2019-01-20T20:21:29.487Z,-7.66
2019-01-20T20:23:59.630Z,-7.66
2019-01-20T20:26:29.770Z,-7.90
2019-01-20T20:28:59.932Z,-7.88
2019-01-20T20:31:30.062Z,-7.96
2019-01-20T20:34:00.237Z,-7.91
2019-01-20T20:36:30.358Z,-7.91
2019-01-20T20:39:00.496Z,-7.98
2019-01-20T20:41:30.700Z,-7.98
2019-01-20T20:44:00.851Z,-8.04
2019-01-20T20:46:31.205Z,-8.05
2019-01-20T20:49:01.483Z,-8.10
2019-01-20T20:51:31.631Z,-8.15
2019-01-20T20:54:01.829Z,-8.17
2019-01-20T20:56:32.023Z,-8.16
2019-01-20T20:59:02.180Z,-8.16
2019-01-20T21:01:32.300Z,-8.15
2019-01-20T21:04:02.497Z,-8.12
2019-01-20T21:06:32.767Z,-8.08
2019-01-20T21:09:03.423Z,-8.14
2019-01-20T21:11:33.553Z,-8.06
2019-01-20T21:14:03.794Z,-7.99
2019-01-20T21:16:37.816Z,-8.05
2019-01-20T21:19:05.727Z,-8.12
2019-01-20T21:21:35.837Z,-8.27
2019-01-20T21:24:06.022Z,-8.17
2019-01-20T21:26:36.150Z,-8.30
2019-01-20T21:29:06.279Z,-8.17
2019-01-20T21:31:36.401Z,-8.07
2019-01-20T21:34:06.520Z,-8.17
2019-01-20T21:36:36.657Z,-8.10
2019-01-20T21:39:09.063Z,-8.05
2019-01-20T21:41:39.228Z,-7.99
2019-01-20T21:44:09.360Z,-7.80
2019-01-20T21:46:45.257Z,-7.62
2019-01-20T21:49:11.250Z,-7.40
2019-01-20T21:51:41.355Z,-7.18
2019-01-20T21:54:11.465Z,-6.99
2019-01-20T21:56:41.570Z,-6.80
2019-01-20T21:59:11.697Z,-6.64
2019-01-20T22:01:41.928Z,-6.49
2019-01-20T22:04:12.048Z,-6.38
2019-01-20T22:06:42.139Z,-6.27
2019-01-20T22:09:12.254Z,-6.20
2019-01-20T22:11:42.440Z,-6.12
2019-01-20T22:14:12.573Z,-6.07
2019-01-20T22:16:42.680Z,-6.00
2019-01-20T22:19:12.827Z,-5.89
2019-01-20T22:21:42.947Z,-5.81
2019-01-20T22:24:13.052Z,-5.73
2019-01-20T22:26:43.161Z,-5.67
2019-01-20T22:29:13.277Z,-5.63
2019-01-20T22:31:43.386Z,-5.57
2019-01-20T22:34:13.497Z,-5.51
2019-01-20T22:36:43.607Z,-5.49
2019-01-20T22:39:13.733Z,-5.43
2019-01-20T22:41:43.909Z,-5.39
2019-01-20T22:44:14.023Z,-5.33
2019-01-20T22:46:44.131Z,-5.31
2019-01-20T22:49:14.245Z,-5.29
2019-01-20T22:51:44.348Z,-5.23
2019-01-20T22:54:14.469Z,-5.26
2019-01-20T22:56:44.583Z,-5.27
2019-01-20T22:59:14.695Z,-5.28
2019-01-20T23:01:44.896Z,-5.30
2019-01-20T23:04:15.049Z,-5.32
2019-01-20T23:06:45.180Z,-5.33
2019-01-20T23:09:15.293Z,-5.29
2019-01-20T23:11:45.403Z,-5.30
2019-01-20T23:14:15.590Z,-5.24
2019-01-20T23:16:45.691Z,-5.25
2019-01-20T23:19:17.028Z,-5.24
2019-01-20T23:21:47.458Z,-5.24
2019-01-20T23:24:17.992Z,-5.23
2019-01-20T23:26:48.451Z,-5.24
2019-01-20T23:29:19.050Z,-5.24
2019-01-20T23:31:49.478Z,-5.25
2019-01-20T23:34:19.923Z,-5.27
2019-01-20T23:36:50.317Z,-5.28
2019-01-20T23:39:20.719Z,-5.29
2019-01-20T23:41:51.231Z,-5.33
2019-01-20T23:44:21.782Z,-5.32
2019-01-20T23:46:52.238Z,-5.34
2019-01-20T23:49:22.654Z,-5.34
2019-01-20T23:51:53.150Z,-5.33
2019-01-20T23:54:23.616Z,-5.35
2019-01-20T23:56:54.077Z,-5.34
2019-01-20T23:59:24.572Z,-5.34
